Dawsonville, Georgia
Current Conditions -  °F | °C
As of 6:35 PM on Friday 19 Dec 2014 (Local Time) from KCNI Reporting Station
Clear Clear  
Wind Chill: 40°   Ceiling: Unl
Heat Index: 43°   Visibility: 10mi
Dew Point: 28°   Wind: 5mph
Humidity: 57%   Direction: 310°NW
Pressure: 30.14"   Gusts: NA
Location:  34.42°N, 84.12°W
Report Text: KCNI 192335Z AUTO 31004KT 10SM CLR 06/M02 A3014 RMK AO2
Loading
Personal Weather Stations






























Interactive Weather Map New forecast layout! Learn more

10-Day Weather Forecast

Advertisements
Track Severe Weather on mobile